createdAt,value
2018-09-28T00:01:49.809Z,10.09
2018-09-28T00:06:49.348Z,10.19
2018-09-28T00:11:49.456Z,10.78
2018-09-28T00:16:49.824Z,10.19
2018-09-28T00:21:49.240Z,10.19
2018-09-28T00:26:50.495Z,10.32
2018-09-28T00:31:49.176Z,9.69
2018-09-28T00:36:49.653Z,10.39
2018-09-28T00:41:49.811Z,9.79
2018-09-28T00:46:49.241Z,9.79
2018-09-28T00:51:49.565Z,9.49
2018-09-28T00:56:49.165Z,8.89
2018-09-28T01:01:49.460Z,8.99
2018-09-28T01:06:49.908Z,9.09
2018-09-28T01:11:49.091Z,9.39
2018-09-28T01:16:49.411Z,9.39
2018-09-28T01:21:49.963Z,8.99
2018-09-28T01:26:49.553Z,9.19
2018-09-28T01:31:49.827Z,9.19
2018-09-28T01:36:49.184Z,8.99
2018-09-28T01:41:49.472Z,8.59
2018-09-28T01:46:50.199Z,9.19
2018-09-28T01:51:49.166Z,9.69
2018-09-28T01:56:49.828Z,9.49
2018-09-28T02:01:48.995Z,8.59
2018-09-28T02:06:49.545Z,9.39
2018-09-28T02:11:49.799Z,8.99
2018-09-28T02:16:49.040Z,8.49
2018-09-28T02:21:49.541Z,8.29
2018-09-28T02:26:49.041Z,8.69
2018-09-28T02:31:49.337Z,9.19
2018-09-28T02:36:49.819Z,8.49
2018-09-28T02:41:49.025Z,8.09
2018-09-28T02:46:49.381Z,7.79
2018-09-28T02:51:49.807Z,7.99
2018-09-28T02:56:49.484Z,9.09
2018-09-28T03:01:49.653Z,9.39
2018-09-28T03:06:49.155Z,7.99
2018-09-28T03:11:49.396Z,7.79
2018-09-28T03:16:49.689Z,7.69
2018-09-28T03:21:49.190Z,8.09
2018-09-28T03:26:49.732Z,8.29
2018-09-28T03:31:49.049Z,7.79
2018-09-28T03:36:49.535Z,8.29
2018-09-28T03:41:49.723Z,8.49
2018-09-28T03:46:49.021Z,8.39
2018-09-28T03:51:49.460Z,8.59
2018-09-28T03:56:49.037Z,8.49
2018-09-28T04:01:49.338Z,8.89
2018-09-28T04:06:49.855Z,8.79
2018-09-28T04:11:49.062Z,9.69
2018-09-28T04:16:49.378Z,10.19
2018-09-28T04:21:50.009Z,9.49
2018-09-28T04:26:49.424Z,9.59
2018-09-28T04:31:49.714Z,9.19
2018-09-28T04:36:49.226Z,8.99
2018-09-28T04:41:49.444Z,9.19
2018-09-28T04:46:49.744Z,9.19
2018-09-28T04:51:49.219Z,9.09
2018-09-28T04:56:49.827Z,9.29
2018-09-28T05:01:49.084Z,9.89
2018-09-28T05:06:49.584Z,10.68
2018-09-28T05:11:49.770Z,10.88
2018-09-28T05:16:49.088Z,10.19
2018-09-28T05:21:49.540Z,10.29
2018-09-28T05:26:49.068Z,10.29
2018-09-28T05:31:50.050Z,10.29
2018-09-28T05:36:49.842Z,10.29
2018-09-28T05:41:49.080Z,10.19
2018-09-28T05:46:49.369Z,10.88
2018-09-28T05:51:49.834Z,11.28
2018-09-28T05:56:49.421Z,10.68
2018-09-28T06:01:49.711Z,10.19
2018-09-28T06:06:49.270Z,10.29
2018-09-28T06:11:49.447Z,10.49
2018-09-28T06:16:49.786Z,11.08
2018-09-28T06:21:49.250Z,10.98
2018-09-28T06:26:49.812Z,10.98
2018-09-28T06:31:49.091Z,10.68
2018-09-28T06:36:49.556Z,11.08
2018-09-28T06:41:50.015Z,11.48
2018-09-28T06:46:49.040Z,11.68
2018-09-28T06:51:49.531Z,11.38
2018-09-28T06:56:49.197Z,11.58
2018-09-28T07:01:49.450Z,11.68
2018-09-28T07:06:49.929Z,11.78
2018-09-28T07:11:49.388Z,11.88
2018-09-28T07:16:49.785Z,11.78
2018-09-28T07:21:49.929Z,11.78
2018-09-28T07:26:49.481Z,11.78
2018-09-28T07:31:49.785Z,11.68
2018-09-28T07:36:49.618Z,11.78
2018-09-28T07:41:49.692Z,11.38
2018-09-28T07:46:49.733Z,11.68
2018-09-28T07:51:49.176Z,11.88
2018-09-28T07:56:49.775Z,11.98
2018-09-28T08:01:49.037Z,12.08
2018-09-28T08:06:49.530Z,11.88
2018-09-28T08:11:49.759Z,11.98
2018-09-28T08:16:49.093Z,11.98
2018-09-28T08:21:49.562Z,12.08
2018-09-28T08:26:49.106Z,12.18
2018-09-28T08:31:49.400Z,12.38
2018-09-28T08:36:50.343Z,12.38
2018-09-28T08:41:49.287Z,12.38
2018-09-28T08:46:49.362Z,12.38
2018-09-28T08:51:49.824Z,12.48
2018-09-28T08:56:49.446Z,12.48
2018-09-28T09:01:49.718Z,12.48
2018-09-28T09:06:49.208Z,12.48
2018-09-28T09:11:49.455Z,12.48
2018-09-28T09:16:49.940Z,12.58
2018-09-28T09:21:49.177Z,12.48
2018-09-28T09:26:49.743Z,12.48
2018-09-28T09:31:49.119Z,12.58
2018-09-28T09:36:49.532Z,12.58
2018-09-28T09:41:49.736Z,12.48
2018-09-28T09:46:49.037Z,12.48
2018-09-28T09:51:49.521Z,12.48
2018-09-28T09:56:49.091Z,12.38
2018-09-28T10:01:49.379Z,12.38
2018-09-28T10:06:49.970Z,12.38
2018-09-28T10:11:49.089Z,12.38
2018-09-28T10:16:49.372Z,12.38
2018-09-28T10:21:49.944Z,12.28
2018-09-28T10:26:49.490Z,12.08
2018-09-28T10:31:49.799Z,12.08
2018-09-28T10:36:49.212Z,12.28
2018-09-28T10:41:49.423Z,12.28
2018-09-28T10:46:49.736Z,12.38
2018-09-28T10:51:49.506Z,12.38
2018-09-28T10:56:49.759Z,12.38
2018-09-28T11:01:49.051Z,12.58
2018-09-28T11:06:49.540Z,12.48
2018-09-28T11:11:49.744Z,12.38
2018-09-28T11:16:49.043Z,12.48
2018-09-28T11:21:50.062Z,12.58
2018-09-28T11:26:49.088Z,12.58
2018-09-28T11:31:49.382Z,12.58
2018-09-28T11:36:49.818Z,12.68
2018-09-28T11:41:49.070Z,12.88
2018-09-28T11:46:49.340Z,13.08
2018-09-28T11:51:50.189Z,13.28
2018-09-28T11:56:49.356Z,13.48
2018-09-28T12:01:49.656Z,13.58
2018-09-28T12:06:49.707Z,13.68
2018-09-28T12:11:49.344Z,13.88
2018-09-28T12:16:49.648Z,13.88
2018-09-28T12:21:49.520Z,13.98
2018-09-28T12:26:49.729Z,14.12
2018-09-28T12:31:49.056Z,14.34
2018-09-28T12:36:49.744Z,14.23
2018-09-28T12:41:49.669Z,14.37
2018-09-28T12:46:48.987Z,14.50
2018-09-28T12:51:49.410Z,14.57
2018-09-28T12:56:49.305Z,14.67
2018-09-28T13:01:49.304Z,14.41
2018-09-28T13:06:50.378Z,14.58
2018-09-28T13:11:49.114Z,14.83
2018-09-28T13:16:49.327Z,14.80
2018-09-28T13:21:50.087Z,14.93
2018-09-28T13:26:49.986Z,14.92
2018-09-28T13:31:49.659Z,14.83
2018-09-28T13:36:49.681Z,14.52
2018-09-28T13:41:49.372Z,14.56
2018-09-28T13:46:49.895Z,14.52
2018-09-28T13:51:49.205Z,14.39
2018-09-28T13:56:50.133Z,13.94
2018-09-28T14:01:49.012Z,13.93
2018-09-28T14:06:49.892Z,14.03
2018-09-28T14:11:49.717Z,14.04
2018-09-28T14:16:49.456Z,13.76
2018-09-28T14:21:49.544Z,13.88
2018-09-28T14:26:49.753Z,14.11
2018-09-28T14:31:49.364Z,14.06
2018-09-28T14:36:50.339Z,14.48
2018-09-28T14:41:49.210Z,14.49
2018-09-28T14:46:49.764Z,13.91
2018-09-28T14:51:49.770Z,14.19
2018-09-28T14:56:49.799Z,14.26
2018-09-28T15:01:49.671Z,14.37
2018-09-28T15:06:49.694Z,14.21
2018-09-28T15:11:49.436Z,14.24
2018-09-28T15:16:49.929Z,13.70
2018-09-28T15:21:49.134Z,13.75
2018-09-28T15:26:49.715Z,13.67
2018-09-28T15:31:49.010Z,13.48
2018-09-28T15:36:49.468Z,13.39
2018-09-28T15:41:49.666Z,13.74
2018-09-28T15:46:49.038Z,13.89
2018-09-28T15:51:49.396Z,13.46
2018-09-28T15:56:49.485Z,13.27
2018-09-28T16:01:49.306Z,13.39
2018-09-28T16:06:49.850Z,13.15
2018-09-28T16:11:48.992Z,13.13
2018-09-28T16:16:49.328Z,13.31
2018-09-28T16:21:49.806Z,13.13
2018-09-28T16:26:49.347Z,12.97
2018-09-28T16:31:49.632Z,12.98
2018-09-28T16:36:49.094Z,12.95
2018-09-28T16:41:49.394Z,12.74
2018-09-28T16:46:49.633Z,12.69
2018-09-28T16:51:49.109Z,12.47
2018-09-28T16:56:49.715Z,12.56
2018-09-28T17:01:49.434Z,12.52
2018-09-28T17:06:49.554Z,12.50
2018-09-28T17:11:49.735Z,12.45
2018-09-28T17:16:49.052Z,12.22
2018-09-28T17:21:49.502Z,11.92
2018-09-28T17:26:49.072Z,11.94
2018-09-28T17:31:49.335Z,12.02
2018-09-28T17:36:49.863Z,11.79
2018-09-28T17:41:49.084Z,11.76
2018-09-28T17:46:49.372Z,11.65
2018-09-28T17:51:49.858Z,11.63
2018-09-28T17:56:49.409Z,11.57
2018-09-28T18:01:49.699Z,11.40
2018-09-28T18:06:49.199Z,11.35
2018-09-28T18:11:49.395Z,11.31
2018-09-28T18:16:49.725Z,11.18
2018-09-28T18:21:49.160Z,11.23
2018-09-28T18:26:49.757Z,11.20
2018-09-28T18:31:49.115Z,11.16
2018-09-28T18:36:49.522Z,11.01
2018-09-28T18:41:49.717Z,10.73
2018-09-28T18:46:49.054Z,10.79
2018-09-28T18:51:49.515Z,10.77
2018-09-28T18:56:49.281Z,10.63
2018-09-28T19:01:49.545Z,10.58
2018-09-28T19:06:49.066Z,10.54
2018-09-28T19:11:49.272Z,10.34
2018-09-28T19:16:49.633Z,10.31
2018-09-28T19:21:48.995Z,10.30
2018-09-28T19:26:49.657Z,10.31
2018-09-28T19:31:48.928Z,10.06
2018-09-28T19:36:49.331Z,9.97
2018-09-28T19:41:49.620Z,9.99
2018-09-28T19:46:48.864Z,9.94
2018-09-28T19:51:49.305Z,9.89
2018-09-28T19:56:48.924Z,9.49
2018-09-28T20:01:49.247Z,9.39
2018-09-28T20:06:49.691Z,9.69
2018-09-28T20:11:48.923Z,9.69
2018-09-28T20:16:49.173Z,9.49
2018-09-28T20:21:49.668Z,9.09
2018-09-28T20:26:49.252Z,8.79
2018-09-28T20:31:49.617Z,8.79
2018-09-28T20:36:49.012Z,9.29
2018-09-28T20:41:49.585Z,9.39
2018-09-28T20:46:49.493Z,9.19
2018-09-28T20:51:49.013Z,8.49
2018-09-28T20:56:49.549Z,8.59
2018-09-28T21:01:48.858Z,8.69
2018-09-28T21:06:49.339Z,8.59
2018-09-28T21:11:49.570Z,8.09
2018-09-28T21:16:48.856Z,7.99
2018-09-28T21:21:49.310Z,8.09
2018-09-28T21:26:48.940Z,8.19
2018-09-28T21:31:49.178Z,8.19
2018-09-28T21:36:49.627Z,7.89
2018-09-28T21:41:49.564Z,7.89
2018-09-28T21:46:49.140Z,7.59
2018-09-28T21:51:49.620Z,8.09
2018-09-28T21:56:49.186Z,8.19
2018-09-28T22:01:49.476Z,7.59
2018-09-28T22:06:49.013Z,7.79
2018-09-28T22:11:49.559Z,7.29
2018-09-28T22:16:49.444Z,7.49
2018-09-28T22:21:48.911Z,7.49
2018-09-28T22:26:49.493Z,7.49
2018-09-28T22:31:48.808Z,7.29
2018-09-28T22:36:49.253Z,7.09
2018-09-28T22:41:49.487Z,7.09
2018-09-28T22:46:49.817Z,6.89
2018-09-28T22:51:49.237Z,7.39
2018-09-28T22:56:48.839Z,6.69
2018-09-28T23:01:49.481Z,6.39
2018-09-28T23:06:49.658Z,6.29
2018-09-28T23:11:48.907Z,6.49
2018-09-28T23:16:49.176Z,6.79
2018-09-28T23:21:49.632Z,6.49
2018-09-28T23:26:49.189Z,6.89
2018-09-28T23:31:49.498Z,5.99
2018-09-28T23:36:49.094Z,6.29
2018-09-28T23:41:49.567Z,5.99
2018-09-28T23:46:49.584Z,6.09
2018-09-28T23:51:48.948Z,5.89
2018-09-28T23:56:49.499Z,5.59
